^^
Station Historical Data
Daily Summary for January 12, 2018 Units:  English    Metric   Both
« Previous Day
Next Day »
Daily Weekly Monthly Yearly Custom
  High: Low: Average:
Temperature: TemperatureF °F 64.0 °F 69.8 °F
Dew Point: DewpointF °F 60.6 °F 66.1 °F
Humidity: Humidity% 71% 88%
Wind Speed: WindSpeedMPHmph 0.0mph 0mph
Wind Gust: WindSpeedGustMPHmph - -
Wind- - North
Pressure: PressureIn in 29.78 in -
Precipitation: 0.10 in    
Historical Graphs
 
 
Tabular Data for January 12, 2018
Time Temperature Dew Point Pressure Wind Wind Speed Wind Gust Humidity Rainfall Rate (Hourly) solar Conditions
TemperatureF °F DewpointF °F PressureIn in Calm     Humidity% HourlyPrecipIn in SolarRadiationWatts/m^2 W/m2 Conditions
00:10 64.9 °F 64.9 °F 29.99 in Calm     100% 0.00 in 0.0 W/m2 FEW
00:15 64.9 °F 64.9 °F 29.99 in Calm     100% 0.00 in 0.0 W/m2 FEW
00:20 64.9 °F 64.9 °F 29.99 in Calm     100% 0.00 in 0.0 W/m2 FEW
00:30 64.9 °F 64.9 °F 29.99 in Calm     100% 0.00 in 0.0 W/m2 FEW
00:40 64.9 °F 64.9 °F 29.99 in Calm     100% 0.00 in 0.0 W/m2 FEW
00:45 64.9 °F 64.9 °F 29.99 in Calm     100% 0.00 in 0.0 W/m2 FEW
00:55 64.9 °F 64.9 °F 29.99 in Calm     100% 0.00 in 0.0 W/m2 FEW
01:05 64.9 °F 64.9 °F 29.98 in Calm     100% 0.00 in 0.0 W/m2 CLR
01:10 64.9 °F 64.9 °F 29.98 in Calm     100% 0.00 in 0.0 W/m2 CLR
01:15 64.9 °F 64.9 °F 29.98 in Calm     100% 0.00 in 0.0 W/m2 CLR
01:30 64.9 °F 64.9 °F 29.98 in Calm     100% 0.00 in 0.0 W/m2 CLR
01:40 64.9 °F 64.9 °F 29.98 in Calm     100% 0.00 in 0.0 W/m2 CLR
01:45 64.9 °F 64.9 °F 29.98 in Calm     100% 0.00 in 0.0 W/m2 CLR
01:55 64.9 °F 64.9 °F 29.98 in Calm     100% 0.00 in 0.0 W/m2 CLR
02:00 64.9 °F 64.9 °F 29.98 in Calm     100% 0.00 in 0.0 W/m2 CLR
02:10 66.9 °F 66.9 °F 29.97 in Calm     100% 0.00 in 0.0 W/m2 BKN
02:15 66.9 °F 66.9 °F 29.97 in Calm     100% 0.00 in 0.0 W/m2 BKN
02:25 66.9 °F 66.9 °F 29.97 in Calm     100% 0.00 in 0.0 W/m2 BKN
02:30 66.9 °F 66.9 °F 29.97 in Calm     100% 0.00 in 0.0 W/m2 BKN
02:45 66.9 °F 66.9 °F 29.97 in Calm     100% 0.00 in 0.0 W/m2 BKN
02:55 66.9 °F 66.9 °F 29.97 in Calm     100% 0.00 in 0.0 W/m2 BKN
03:00 66.9 °F 66.9 °F 29.97 in Calm     100% 0.00 in 0.0 W/m2 BKN
03:10 68.0 °F 68.0 °F 29.96 in Calm     100% 0.00 in 0.0 W/m2 OVC
03:15 68.0 °F 68.0 °F 29.96 in Calm     100% 0.00 in 0.0 W/m2 OVC
03:25 68.0 °F 68.0 °F 29.96 in Calm     100% 0.00 in 0.0 W/m2 OVC
03:30 68.0 °F 68.0 °F 29.96 in Calm     100% 0.00 in 0.0 W/m2 OVC
03:40 68.0 °F 68.0 °F 29.96 in Calm     100% 0.00 in 0.0 W/m2 OVC
03:45 68.0 °F 68.0 °F 29.96 in Calm     100% 0.00 in 0.0 W/m2 OVC
03:50 68.0 °F 68.0 °F 29.95 in Calm     100% 0.00 in 0.0 W/m2 OVC
04:00 68.0 °F 68.0 °F 29.95 in Calm     100% 0.00 in 0.0 W/m2 OVC
04:10 66.9 °F 66.9 °F 29.95 in Calm     100% 0.00 in 0.0 W/m2 OVC
04:15 66.9 °F 66.9 °F 29.95 in Calm     100% 0.00 in 0.0 W/m2 OVC
04:25 66.9 °F 66.9 °F 29.95 in Calm     100% 0.00 in 0.0 W/m2 OVC
04:40 66.9 °F 66.9 °F 29.95 in Calm     100% 0.00 in 0.0 W/m2 OVC
04:55 66.9 °F 66.9 °F 29.95 in Calm     100% 0.00 in 0.0 W/m2 OVC
05:00 66.9 °F 66.9 °F 29.95 in Calm     100% 0.00 in 0.0 W/m2 OVC
05:15 66.9 °F 66.9 °F 29.94 in Calm     100% 0.00 in 0.0 W/m2 OVC
05:25 66.9 °F 66.9 °F 29.94 in Calm     100% 0.00 in 0.0 W/m2 OVC
05:30 66.9 °F 66.9 °F 29.94 in Calm     100% 0.00 in 0.0 W/m2 OVC
05:40 66.9 °F 66.9 °F 29.94 in Calm     100% 0.00 in 0.0 W/m2 OVC
05:45 66.9 °F 66.9 °F 29.94 in Calm     100% 0.00 in 0.0 W/m2 OVC
05:55 66.9 °F 66.9 °F 29.94 in Calm     100% 0.00 in 0.0 W/m2 OVC
06:00 66.9 °F 66.9 °F 29.94 in Calm     100% 0.00 in 0.0 W/m2 OVC
06:15 66.9 °F 66.9 °F 29.94 in Calm     100% 0.00 in 0.0 W/m2 OVC
06:25 66.9 °F 66.9 °F 29.94 in Calm     100% 0.00 in 0.0 W/m2 OVC
06:30 66.9 °F 66.9 °F 29.94 in Calm     100% 0.00 in 0.0 W/m2 OVC
06:40 66.9 °F 66.9 °F 29.94 in Calm     100% 0.00 in 0.0 W/m2 OVC
06:45 66.9 °F 66.9 °F 29.94 in Calm     100% 0.00 in 0.0 W/m2 OVC
06:55 68.0 °F 68.0 °F 29.93 in Calm     100% 0.00 in 0.0 W/m2 OVC
07:00 68.0 °F 68.0 °F 29.93 in Calm     100% 0.00 in 0.0 W/m2 OVC
07:10 68.0 °F 68.0 °F 29.93 in Calm     100% 0.00 in 0.0 W/m2 OVC
07:15 68.0 °F 68.0 °F 29.93 in Calm     100% 0.00 in 0.0 W/m2 OVC
07:25 68.0 °F 68.0 °F 29.93 in Calm     100% 0.00 in 0.0 W/m2 OVC
07:30 68.0 °F 68.0 °F 29.93 in Calm     100% 0.00 in 0.0 W/m2 OVC
07:40 68.0 °F 68.0 °F 29.94 in Calm     100% 0.00 in 0.0 W/m2 OVC
07:55 68.0 °F 68.0 °F 29.94 in Calm     100% 0.00 in 0.0 W/m2 OVC
08:10 69.1 °F 69.1 °F 29.94 in Calm     100% 0.00 in 0.0 W/m2 OVC
08:15 69.1 °F 69.1 °F 29.94 in Calm     100% 0.00 in 0.0 W/m2 OVC
08:25 69.1 °F 69.1 °F 29.94 in Calm     100% 0.00 in 0.0 W/m2 OVC
08:30 69.1 °F 69.1 °F 29.94 in Calm     100% 0.00 in 0.0 W/m2 OVC
08:40 69.1 °F 69.1 °F 29.94 in Calm     100% 0.00 in 0.0 W/m2 OVC
08:45 69.1 °F 69.1 °F 29.94 in Calm     100% 0.00 in 0.0 W/m2 OVC
08:55 69.1 °F 69.1 °F 29.94 in Calm     100% 0.00 in 0.0 W/m2 OVC
09:00 69.1 °F 69.1 °F 29.94 in Calm     100% 0.00 in 0.0 W/m2 OVC
09:10 70.0 °F 68.8 °F 29.94 in Calm     96% 0.00 in 0.0 W/m2 OVC
09:25 70.0 °F 68.8 °F 29.94 in Calm     96% 0.00 in 0.0 W/m2 OVC
09:30 70.0 °F 68.8 °F 29.94 in Calm     96% 0.00 in 0.0 W/m2 OVC
09:40 70.0 °F 68.8 °F 29.94 in Calm     96% 0.00 in 0.0 W/m2 OVC
09:55 72.0 °F 68.9 °F 29.93 in Calm     90% 0.00 in 0.0 W/m2 OVC
10:00 72.0 °F 68.9 °F 29.93 in Calm     90% 0.00 in 0.0 W/m2 OVC
10:10 73.0 °F 68.9 °F 29.93 in Calm     87% 0.00 in 0.0 W/m2 OVC
10:25 73.0 °F 68.9 °F 29.93 in Calm     87% 0.00 in 0.0 W/m2 OVC
10:30 73.0 °F 68.9 °F 29.93 in Calm     87% 0.00 in 0.0 W/m2 OVC
10:45 73.9 °F 68.8 °F 29.93 in Calm     84% 0.00 in 0.0 W/m2 OVC
10:55 73.9 °F 68.8 °F 29.93 in Calm     84% 0.00 in 0.0 W/m2 OVC
11:00 73.9 °F 68.8 °F 29.93 in Calm     84% 0.00 in 0.0 W/m2 OVC
11:10 73.9 °F 68.8 °F 29.92 in Calm     84% 0.00 in 0.0 W/m2 OVC
11:15 73.9 °F 68.8 °F 29.92 in Calm     84% 0.00 in 0.0 W/m2 OVC
11:25 73.9 °F 68.8 °F 29.92 in Calm     84% 0.00 in 0.0 W/m2 OVC
11:30 73.9 °F 68.8 °F 29.92 in Calm     84% 0.00 in 0.0 W/m2 OVC
11:40 73.9 °F 68.8 °F 29.92 in Calm     84% 0.00 in 0.0 W/m2 OVC
11:45 73.9 °F 68.8 °F 29.92 in Calm     84% 0.00 in 0.0 W/m2 OVC
12:05 75.0 °F 68.8 °F 29.90 in Calm     81% 0.00 in 0.0 W/m2 OVC
12:10 75.0 °F 68.8 °F 29.90 in Calm     81% 0.00 in 0.0 W/m2 OVC
12:15 75.0 °F 68.8 °F 29.90 in Calm     81% 0.00 in 0.0 W/m2 OVC
12:25 75.0 °F 68.8 °F 29.90 in Calm     81% 0.00 in 0.0 W/m2 OVC
12:30 75.0 °F 68.8 °F 29.90 in Calm     81% 0.00 in 0.0 W/m2 OVC
12:40 78.1 °F 68.7 °F 29.88 in Calm     73% 0.00 in 0.0 W/m2 BKN
12:45 78.1 °F 68.7 °F 29.88 in Calm     73% 0.00 in 0.0 W/m2 BKN
12:55 78.1 °F 68.7 °F 29.88 in Calm     73% 0.00 in 0.0 W/m2 BKN
13:00 78.1 °F 68.7 °F 29.88 in Calm     73% 0.00 in 0.0 W/m2 BKN
13:10 77.0 °F 68.9 °F 29.86 in Calm     76% 0.00 in 0.0 W/m2 BKN
13:15 77.0 °F 68.9 °F 29.86 in Calm     76% 0.00 in 0.0 W/m2 BKN
13:25 77.0 °F 68.9 °F 29.86 in Calm     76% 0.00 in 0.0 W/m2 SCT
13:30 77.0 °F 68.9 °F 29.86 in Calm     76% 0.00 in 0.0 W/m2 SCT
13:40 77.0 °F 68.9 °F 29.86 in Calm     76% 0.00 in 0.0 W/m2 SCT
13:45 77.0 °F 68.9 °F 29.86 in Calm     76% 0.00 in 0.0 W/m2 SCT
14:00 77.0 °F 68.9 °F 29.86 in Calm     76% 0.00 in 0.0 W/m2 SCT
14:10 75.0 °F 70.9 °F 29.81 in Calm     87% 0.00 in 0.0 W/m2 -RA
14:15 75.0 °F 70.9 °F 29.81 in Calm     87% 0.00 in 0.0 W/m2 -RA
14:25 75.0 °F 70.9 °F 29.81 in Calm     87% 0.00 in 0.0 W/m2 -RA
14:30 75.0 °F 70.9 °F 29.81 in Calm     87% 0.00 in 0.0 W/m2 -RA
14:45 75.0 °F 70.9 °F 29.81 in Calm     87% 0.00 in 0.0 W/m2 -RA
14:55 75.0 °F 70.9 °F 29.81 in Calm     87% 0.00 in 0.0 W/m2 -RA
15:00 75.0 °F 70.9 °F 29.81 in Calm     87% 0.00 in 0.0 W/m2 -RA
15:10 80.1 °F 69.8 °F 29.78 in Calm     71% 0.00 in 0.0 W/m2 RA
15:15 80.1 °F 69.8 °F 29.78 in Calm     71% 0.00 in 0.0 W/m2 BKN
15:25 80.1 °F 69.8 °F 29.78 in Calm     71% 0.00 in 0.0 W/m2 BKN
15:30 80.1 °F 69.8 °F 29.78 in Calm     71% 0.00 in 0.0 W/m2 BKN
15:40 80.1 °F 69.8 °F 29.78 in Calm     71% 0.00 in 0.0 W/m2 BKN
15:45 80.1 °F 69.8 °F 29.78 in Calm     71% 0.00 in 0.0 W/m2 BKN
15:55 80.1 °F 69.8 °F 29.78 in Calm     71% 0.00 in 0.0 W/m2 BKN
16:00 80.1 °F 69.8 °F 29.78 in Calm     71% 0.00 in 0.0 W/m2 BKN
16:10 73.9 °F 68.8 °F 29.80 in Calm     84% 0.00 in 0.0 W/m2 RA
16:30 73.9 °F 68.8 °F 29.80 in Calm     84% 0.00 in 0.0 W/m2 OVC
16:40 73.9 °F 68.8 °F 29.80 in Calm     84% 0.00 in 0.0 W/m2 OVC
16:45 73.9 °F 68.8 °F 29.80 in Calm     84% 0.00 in 0.0 W/m2 OVC
16:55 73.9 °F 68.8 °F 29.80 in Calm     84% 0.00 in 0.0 W/m2 OVC
17:00 73.9 °F 68.8 °F 29.80 in Calm     84% 0.00 in 0.0 W/m2 OVC
17:15 73.0 °F 66.9 °F 29.81 in Calm     81% 0.00 in 0.0 W/m2 BKN
17:25 73.0 °F 66.9 °F 29.81 in Calm     81% 0.00 in 0.0 W/m2 BKN
17:30 73.0 °F 66.9 °F 29.81 in Calm     81% 0.00 in 0.0 W/m2 BKN
17:45 73.0 °F 66.9 °F 29.81 in Calm     81% 0.00 in 0.0 W/m2 BKN
17:55 73.0 °F 66.9 °F 29.81 in Calm     81% 0.00 in 0.0 W/m2 BKN
18:10 72.0 °F 65.8 °F 29.84 in Calm     81% 0.00 in 0.0 W/m2 BKN
18:15 72.0 °F 65.8 °F 29.84 in Calm     81% 0.00 in 0.0 W/m2 BKN
18:25 72.0 °F 65.8 °F 29.84 in Calm     81% 0.00 in 0.0 W/m2 BKN
18:30 72.0 °F 65.8 °F 29.84 in Calm     81% 0.00 in 0.0 W/m2 BKN
18:40 72.0 °F 65.8 °F 29.84 in Calm     81% 0.00 in 0.0 W/m2 BKN
18:45 72.0 °F 65.8 °F 29.84 in Calm     81% 0.00 in 0.0 W/m2 BKN
18:55 72.0 °F 65.8 °F 29.84 in Calm     81% 0.00 in 0.0 W/m2 BKN
19:10 72.0 °F 64.0 °F 29.87 in Calm     76% 0.00 in 0.0 W/m2 OVC
19:15 72.0 °F 64.0 °F 29.87 in Calm     76% 0.00 in 0.0 W/m2 OVC
19:25 72.0 °F 64.0 °F 29.87 in Calm     76% 0.00 in 0.0 W/m2 OVC
19:30 72.0 °F 64.0 °F 29.87 in Calm     76% 0.00 in 0.0 W/m2 OVC
19:40 72.0 °F 64.0 °F 29.87 in Calm     76% 0.00 in 0.0 W/m2 -RA
20:00 70.0 °F 61.7 °F 29.89 in Calm     75% 0.00 in 0.0 W/m2 -RA
20:10 69.1 °F 60.8 °F 29.90 in Calm     75% 0.00 in 0.0 W/m2 OVC
20:15 69.1 °F 60.8 °F 29.90 in Calm     75% 0.00 in 0.0 W/m2 OVC
20:25 69.1 °F 60.8 °F 29.90 in Calm     75% 0.00 in 0.0 W/m2 OVC
20:30 69.1 °F 60.8 °F 29.90 in Calm     75% 0.00 in 0.0 W/m2 OVC
20:45 69.1 °F 60.8 °F 29.90 in Calm     75% 0.00 in 0.0 W/m2 OVC
20:55 69.1 °F 60.8 °F 29.90 in Calm     75% 0.00 in 0.0 W/m2 OVC
21:00 69.1 °F 60.8 °F 29.90 in Calm     75% 0.00 in 0.0 W/m2 OVC
21:10 66.9 °F 60.9 °F 29.93 in Calm     81% 0.00 in 0.0 W/m2 BKN
21:15 66.9 °F 60.9 °F 29.93 in Calm     81% 0.00 in 0.0 W/m2 BKN
21:25 66.9 °F 60.9 °F 29.93 in Calm     81% 0.00 in 0.0 W/m2 BKN
21:30 66.9 °F 60.9 °F 29.93 in Calm     81% 0.00 in 0.0 W/m2 BKN
21:40 66.9 °F 60.9 °F 29.93 in Calm     81% 0.00 in 0.0 W/m2 BKN
21:45 66.9 °F 60.9 °F 29.93 in Calm     81% 0.00 in 0.0 W/m2 BKN
21:55 66.9 °F 60.9 °F 29.93 in Calm     81% 0.00 in 0.0 W/m2 BKN
22:00 66.9 °F 60.9 °F 29.93 in Calm     81% 0.00 in 0.0 W/m2 BKN
22:10 64.9 °F 60.6 °F 29.94 in Calm     86% 0.00 in 0.0 W/m2 SCT
22:15 64.9 °F 60.6 °F 29.94 in Calm     86% 0.00 in 0.0 W/m2 SCT
22:25 64.9 °F 60.6 °F 29.94 in Calm     86% 0.00 in 0.0 W/m2 SCT
22:30 64.9 °F 60.6 °F 29.94 in Calm     86% 0.00 in 0.0 W/m2 SCT
22:45 64.9 °F 60.6 °F 29.94 in Calm     86% 0.00 in 0.0 W/m2 SCT
22:55 64.9 °F 60.6 °F 29.94 in Calm     86% 0.00 in 0.0 W/m2 SCT
23:00 64.9 °F 60.6 °F 29.94 in Calm     86% 0.00 in 0.0 W/m2 SCT
23:10 64.0 °F 60.7 °F 29.96 in Calm     89% 0.00 in 0.0 W/m2 OVC
23:15 64.0 °F 60.7 °F 29.96 in Calm     89% 0.00 in 0.0 W/m2 OVC
23:20 64.0 °F 60.7 °F 29.96 in Calm     89% 0.00 in 0.0 W/m2 OVC
23:40 64.0 °F 60.7 °F 29.96 in Calm     89% 0.00 in 0.0 W/m2 OVC
23:45 64.0 °F 60.7 °F 29.96 in Calm     89% 0.00 in 0.0 W/m2 OVC
23:55 64.0 °F 60.7 °F 29.96 in Calm     89% 0.00 in 0.0 W/m2 OVC
Lake Mary, FL, USA
Compliments of Weather Underground - 1.5 mb